Terminal Aerodrome Forecast
Issued by NWS Louisville, KY

Home | Current Version | Previous Version | Text Only | Print | Product List | Glossary On
Versions: 1 2 3 4 5 6 7 8 9 10 11 12 13 14 15 16 17 18 19 20
000
FTUS43 KLMK 191700
TAFLEX
TAF
KLEX 191720Z 1918/2018 22007KT P6SM SCT030
     FM200200 20005KT P6SM BKN040 BKN250
     FM200600 VRB03KT 4SM BR SCT250
      TEMPO 2008/2012 1SM BR
     FM201500 25007KT P6SM SCT250=

USA.gov is the U.S. government's official web portal to all federal, state and local government web resources and services.